createdAt,value
2022-08-05T00:01:35.574Z,25.87
2022-08-05T00:04:05.082Z,25.85
2022-08-05T00:06:36.653Z,25.79
2022-08-05T00:09:13.169Z,25.71
2022-08-05T00:11:49.637Z,25.70
2022-08-05T00:14:27.540Z,25.68
2022-08-05T00:16:57.833Z,25.61
2022-08-05T00:19:33.086Z,25.57
2022-08-05T00:22:03.160Z,25.52
2022-08-05T00:24:35.190Z,25.43
2022-08-05T00:27:04.646Z,25.38
2022-08-05T00:29:38.552Z,25.32
2022-08-05T00:32:13.435Z,25.36
2022-08-05T00:35:05.306Z,25.33
2022-08-05T00:37:35.894Z,25.14
2022-08-05T00:40:27.965Z,25.04
2022-08-05T00:43:02.491Z,24.97
2022-08-05T00:45:38.986Z,24.97
2022-08-05T00:48:31.179Z,24.95
2022-08-05T00:50:59.687Z,24.93
2022-08-05T00:53:45.017Z,24.89
2022-08-05T00:56:25.257Z,24.77
2022-08-05T00:58:53.629Z,24.72
2022-08-05T01:01:24.897Z,24.69
2022-08-05T01:04:13.675Z,24.61
2022-08-05T01:06:46.672Z,24.63
2022-08-05T01:09:17.303Z,24.66
2022-08-05T01:11:52.231Z,24.68
2022-08-05T01:14:27.229Z,24.65
2022-08-05T01:17:12.143Z,24.64
2022-08-05T01:20:02.240Z,24.64
2022-08-05T01:22:57.640Z,24.54
2022-08-05T01:25:57.160Z,24.43
2022-08-05T01:28:49.658Z,24.39
2022-08-05T01:31:20.492Z,24.38
2022-08-05T01:34:17.862Z,24.38
2022-08-05T01:37:07.275Z,24.36
2022-08-05T01:39:47.923Z,24.31
2022-08-05T01:42:20.755Z,24.24
2022-08-05T01:44:54.222Z,24.16
2022-08-05T01:47:39.254Z,24.24
2022-08-05T01:50:28.734Z,24.19
2022-08-05T01:53:02.967Z,24.13
2022-08-05T01:55:36.322Z,24.06
2022-08-05T01:58:29.946Z,23.96
2022-08-05T02:01:00.118Z,23.90
2022-08-05T02:03:51.610Z,23.83
2022-08-05T02:06:37.018Z,23.84
2022-08-05T02:09:07.464Z,23.84
2022-08-05T02:11:55.558Z,23.77
2022-08-05T02:14:57.815Z,23.70
2022-08-05T02:18:31.343Z,23.69
2022-08-05T02:20:40.166Z,23.72
2022-08-05T02:23:11.930Z,23.82
2022-08-05T02:25:50.066Z,23.91
2022-08-05T02:28:29.104Z,23.92
2022-08-05T02:31:07.894Z,23.84
2022-08-05T02:33:57.709Z,23.80
2022-08-05T02:36:31.375Z,23.72
2022-08-05T02:39:03.129Z,23.61
2022-08-05T02:41:42.914Z,23.56
2022-08-05T02:44:24.399Z,23.45
2022-08-05T02:46:59.862Z,23.40
2022-08-05T02:49:44.616Z,23.36
2022-08-05T02:52:25.874Z,23.30
2022-08-05T02:55:05.589Z,23.24
2022-08-05T02:58:10.570Z,23.15
2022-08-05T03:00:30.019Z,23.13
2022-08-05T03:03:00.115Z,23.24
2022-08-05T03:06:55.889Z,23.29
2022-08-05T03:08:19.543Z,23.36
2022-08-05T03:11:01.127Z,23.41
2022-08-05T03:13:51.630Z,23.40
2022-08-05T03:16:31.569Z,23.26
2022-08-05T03:19:01.490Z,23.17
2022-08-05T03:21:41.554Z,23.15
2022-08-05T03:24:26.848Z,23.02
2022-08-05T03:27:00.034Z,22.98
2022-08-05T03:29:46.029Z,22.94
2022-08-05T03:32:19.464Z,22.93
2022-08-05T03:34:50.653Z,22.91
2022-08-05T03:37:21.305Z,22.92
2022-08-05T03:40:01.920Z,22.95
2022-08-05T03:42:41.455Z,22.99
2022-08-05T03:45:21.706Z,23.07
2022-08-05T03:47:51.947Z,23.16
2022-08-05T03:50:32.399Z,23.18
2022-08-05T03:55:00.247Z,23.16
2022-08-05T03:56:26.848Z,23.21
2022-08-05T03:59:02.950Z,23.23
2022-08-05T04:01:35.515Z,23.22
2022-08-05T04:04:08.854Z,23.23
2022-08-05T04:06:47.774Z,23.27
2022-08-05T04:09:26.552Z,23.29
2022-08-05T04:11:57.104Z,23.38
2022-08-05T04:14:30.495Z,23.44
2022-08-05T04:17:06.177Z,23.46
2022-08-05T04:19:43.120Z,23.53
2022-08-05T04:22:14.215Z,23.56
2022-08-05T04:24:52.507Z,23.67
2022-08-05T04:27:41.640Z,23.75
2022-08-05T04:30:10.521Z,23.85
2022-08-05T04:32:38.994Z,23.92
2022-08-05T04:35:17.380Z,23.95
2022-08-05T04:38:02.089Z,23.96
2022-08-05T04:40:36.339Z,23.65
2022-08-05T04:43:05.297Z,23.53
2022-08-05T04:45:49.062Z,23.39
2022-08-05T04:48:27.287Z,23.36
2022-08-05T04:51:03.574Z,23.37
2022-08-05T04:53:38.992Z,23.38
2022-08-05T04:56:33.983Z,23.38
2022-08-05T04:58:57.076Z,23.39
2022-08-05T05:01:33.441Z,23.41
2022-08-05T05:04:02.107Z,23.46
2022-08-05T05:06:40.039Z,23.56
2022-08-05T05:09:16.899Z,23.65
2022-08-05T05:11:53.106Z,23.78
2022-08-05T05:14:31.344Z,23.88
2022-08-05T05:17:01.211Z,23.96
2022-08-05T05:19:36.858Z,24.10
2022-08-05T05:22:23.489Z,24.29
2022-08-05T05:24:57.110Z,24.55
2022-08-05T05:27:41.217Z,24.94
2022-08-05T05:30:15.484Z,25.10
2022-08-05T05:33:00.622Z,25.27
2022-08-05T05:35:37.609Z,25.42
2022-08-05T05:38:13.819Z,25.59
2022-08-05T05:40:49.866Z,25.73
2022-08-05T05:43:27.662Z,25.79
2022-08-05T05:46:16.097Z,25.96
2022-08-05T05:48:47.841Z,26.15
2022-08-05T05:51:28.077Z,26.22
2022-08-05T05:53:59.823Z,26.27
2022-08-05T05:56:33.161Z,26.35
2022-08-05T05:59:07.752Z,26.49
2022-08-05T06:01:39.319Z,26.57
2022-08-05T06:04:14.481Z,26.71
2022-08-05T06:06:47.303Z,26.73
2022-08-05T06:09:25.402Z,26.87
2022-08-05T06:12:04.907Z,26.98
2022-08-05T06:14:34.869Z,27.12
2022-08-05T06:17:32.250Z,27.29
2022-08-05T06:19:57.070Z,27.55
2022-08-05T06:22:33.548Z,27.72
2022-08-05T06:25:59.173Z,27.82
2022-08-05T06:28:12.249Z,27.95
2022-08-05T06:30:41.331Z,28.24
2022-08-05T06:33:09.903Z,28.46
2022-08-05T06:36:05.782Z,28.59
2022-08-05T06:38:35.816Z,28.87
2022-08-05T06:41:08.015Z,29.10
2022-08-05T06:43:58.221Z,29.23
2022-08-05T06:46:29.898Z,29.43
2022-08-05T06:49:01.232Z,29.81
2022-08-05T06:51:31.338Z,30.69
2022-08-05T06:54:02.256Z,32.10
2022-08-05T06:56:35.230Z,33.39
2022-08-05T06:59:08.394Z,33.49
2022-08-05T07:01:40.740Z,33.44
2022-08-05T07:04:11.218Z,33.81
2022-08-05T07:06:42.859Z,34.03
2022-08-05T07:09:11.157Z,33.95
2022-08-05T07:11:39.982Z,33.99
2022-08-05T07:14:30.038Z,34.13
2022-08-05T07:18:00.457Z,34.17
2022-08-05T07:20:31.189Z,34.67
2022-08-05T07:22:39.482Z,34.90
2022-08-05T07:25:23.981Z,35.19
2022-08-05T07:28:07.259Z,36.38
2022-08-05T07:30:39.889Z,37.44
2022-08-05T07:33:16.479Z,37.31
2022-08-05T07:36:01.939Z,38.38
2022-08-05T07:38:42.858Z,38.15
2022-08-05T07:42:07.915Z,37.26
2022-08-05T07:44:14.505Z,36.44
2022-08-05T07:46:49.515Z,35.79
2022-08-05T07:49:18.944Z,35.60
2022-08-05T07:51:53.896Z,35.77
2022-08-05T07:54:31.744Z,36.19
2022-08-05T07:57:17.996Z,36.69
2022-08-05T07:59:53.897Z,36.60
2022-08-05T08:02:31.197Z,36.40
2022-08-05T08:05:18.282Z,36.21
2022-08-05T08:07:59.827Z,36.04
2022-08-05T08:10:31.561Z,36.67
2022-08-05T08:13:01.720Z,37.46
2022-08-05T08:16:33.657Z,38.13
2022-08-05T08:18:20.883Z,37.79
2022-08-05T08:21:02.872Z,37.11
2022-08-05T08:24:02.441Z,37.15
2022-08-05T08:26:29.555Z,37.26
2022-08-05T08:29:02.353Z,38.03
2022-08-05T08:31:48.645Z,39.02
2022-08-05T08:34:30.147Z,39.52
2022-08-05T08:37:04.724Z,38.83
2022-08-05T08:39:37.348Z,38.25
2022-08-05T08:42:27.578Z,37.48
2022-08-05T08:45:24.311Z,37.10
2022-08-05T08:48:06.746Z,37.46
2022-08-05T08:51:03.751Z,37.19
2022-08-05T08:53:35.464Z,37.19
2022-08-05T08:56:06.995Z,37.33
2022-08-05T08:58:43.370Z,37.33
2022-08-05T09:01:17.950Z,37.40
2022-08-05T09:03:55.712Z,37.65
2022-08-05T09:06:29.857Z,37.75
2022-08-05T09:09:01.179Z,37.37
2022-08-05T09:11:50.911Z,37.21
2022-08-05T09:14:57.338Z,37.02
2022-08-05T09:17:41.393Z,37.32
2022-08-05T09:20:08.824Z,37.60
2022-08-05T09:23:07.623Z,37.77
2022-08-05T09:26:01.560Z,37.52
2022-08-05T09:28:32.381Z,37.68
2022-08-05T09:31:43.353Z,37.70
2022-08-05T09:34:06.854Z,37.61
2022-08-05T09:36:54.143Z,37.47
2022-08-05T09:39:39.441Z,37.39
2022-08-05T09:42:24.329Z,37.72
2022-08-05T09:46:04.994Z,37.74
2022-08-05T09:47:56.547Z,38.16
2022-08-05T09:50:44.627Z,38.19
2022-08-05T09:53:23.022Z,38.06
2022-08-05T09:56:04.896Z,38.14
2022-08-05T09:58:41.811Z,38.29
2022-08-05T10:01:32.104Z,38.01
2022-08-05T10:04:03.536Z,38.16
2022-08-05T10:06:33.006Z,37.62
2022-08-05T10:09:28.279Z,37.54
2022-08-05T10:12:28.418Z,37.80
2022-08-05T10:15:20.841Z,37.79
2022-08-05T10:18:16.854Z,38.00
2022-08-05T10:20:49.873Z,38.16
2022-08-05T10:23:55.646Z,38.28
2022-08-05T10:26:19.617Z,38.32
2022-08-05T10:28:59.931Z,38.37
2022-08-05T10:32:54.989Z,38.38
2022-08-05T10:34:16.968Z,38.42
2022-08-05T10:36:45.726Z,38.66
2022-08-05T10:40:03.401Z,38.57
2022-08-05T10:42:33.958Z,38.65
2022-08-05T10:45:21.589Z,38.79
2022-08-05T10:48:29.904Z,38.58
2022-08-05T10:51:04.024Z,38.71
2022-08-05T10:53:42.597Z,38.33
2022-08-05T10:56:25.212Z,38.37
2022-08-05T10:58:53.976Z,38.59
2022-08-05T11:01:54.248Z,38.35
2022-08-05T11:04:26.356Z,38.49
2022-08-05T11:06:58.028Z,38.70
2022-08-05T11:09:39.333Z,38.88
2022-08-05T11:12:45.392Z,39.26
2022-08-05T11:15:20.321Z,38.94
2022-08-05T11:17:59.624Z,39.12
2022-08-05T11:20:41.670Z,39.33
2022-08-05T11:24:03.383Z,39.68
2022-08-05T11:26:28.953Z,39.65
2022-08-05T11:29:14.054Z,39.72
2022-08-05T11:31:54.183Z,40.10
2022-08-05T11:34:47.429Z,40.34
2022-08-05T11:38:29.986Z,40.73
2022-08-05T11:41:34.206Z,40.77
2022-08-05T11:44:08.267Z,40.45
2022-08-05T11:47:09.949Z,40.38
2022-08-05T11:49:36.352Z,40.07
2022-08-05T11:52:08.460Z,40.24
2022-08-05T11:54:41.596Z,40.21
2022-08-05T11:57:24.785Z,40.13
2022-08-05T11:59:57.104Z,40.21
2022-08-05T12:02:31.926Z,40.07
2022-08-05T12:05:08.078Z,40.75
2022-08-05T12:08:09.560Z,40.95
2022-08-05T12:10:45.955Z,41.00
2022-08-05T12:13:27.809Z,40.20
2022-08-05T12:16:14.813Z,40.81
2022-08-05T12:18:49.426Z,41.28
2022-08-05T12:21:23.760Z,41.45
2022-08-05T12:24:04.562Z,41.28
2022-08-05T12:26:44.300Z,40.93
2022-08-05T12:29:16.249Z,41.26
2022-08-05T12:31:54.548Z,41.66
2022-08-05T12:34:28.485Z,41.74
2022-08-05T12:37:00.012Z,41.72
2022-08-05T12:39:37.268Z,41.70
2022-08-05T12:42:17.366Z,41.94
2022-08-05T12:44:47.515Z,42.03
2022-08-05T12:47:31.066Z,42.38
2022-08-05T12:50:04.098Z,42.68
2022-08-05T12:52:38.918Z,42.19
2022-08-05T12:55:22.323Z,42.31
2022-08-05T12:58:38.632Z,42.20
2022-08-05T13:02:03.140Z,42.15
2022-08-05T13:03:41.991Z,42.39
2022-08-05T13:06:17.529Z,42.74
2022-08-05T13:08:51.740Z,42.58
2022-08-05T13:12:02.617Z,42.40
2022-08-05T13:14:36.241Z,42.10
2022-08-05T13:17:31.902Z,42.59
2022-08-05T13:20:16.503Z,42.84
2022-08-05T13:22:51.543Z,42.71
2022-08-05T13:25:52.837Z,42.32
2022-08-05T13:28:12.892Z,41.98
2022-08-05T13:30:42.507Z,42.09
2022-08-05T13:33:14.355Z,42.71
2022-08-05T13:36:01.856Z,41.29
2022-08-05T13:38:35.998Z,41.52
2022-08-05T13:41:06.681Z,41.24
2022-08-05T13:43:44.957Z,41.54
2022-08-05T13:46:43.697Z,41.60
2022-08-05T13:49:12.867Z,41.61
2022-08-05T13:51:45.890Z,41.55
2022-08-05T13:54:21.165Z,41.93
2022-08-05T13:56:53.675Z,41.67
2022-08-05T13:59:26.937Z,41.83
2022-08-05T14:02:00.034Z,41.11
2022-08-05T14:05:00.714Z,41.03
2022-08-05T14:08:00.083Z,41.03
2022-08-05T14:10:28.897Z,40.46
2022-08-05T14:12:59.885Z,40.61
2022-08-05T14:16:04.532Z,40.65
2022-08-05T14:18:18.135Z,40.88
2022-08-05T14:20:54.442Z,40.57
2022-08-05T14:23:25.694Z,40.59
2022-08-05T14:25:59.593Z,39.85
2022-08-05T14:28:31.346Z,39.80
2022-08-05T14:31:00.405Z,39.45
2022-08-05T14:33:32.452Z,39.13
2022-08-05T14:36:21.450Z,38.93
2022-08-05T14:38:51.042Z,38.75
2022-08-05T14:41:19.839Z,38.43
2022-08-05T14:44:02.698Z,38.26
2022-08-05T14:46:40.709Z,38.24
2022-08-05T14:49:08.987Z,38.05
2022-08-05T14:51:42.595Z,37.82
2022-08-05T14:54:27.602Z,37.61
2022-08-05T14:57:01.075Z,37.35
2022-08-05T14:59:35.846Z,37.27
2022-08-05T15:02:15.815Z,37.18
2022-08-05T15:04:47.828Z,37.09
2022-08-05T15:08:10.866Z,37.08
2022-08-05T15:10:09.610Z,36.85
2022-08-05T15:12:59.846Z,36.79
2022-08-05T15:15:54.029Z,36.68
2022-08-05T15:18:17.255Z,36.64
2022-08-05T15:20:46.119Z,36.43
2022-08-05T15:23:15.495Z,36.16
2022-08-05T15:25:53.364Z,36.04
2022-08-05T15:28:27.620Z,35.97
2022-08-05T15:30:56.811Z,35.99
2022-08-05T15:34:18.479Z,36.07
2022-08-05T15:36:17.781Z,36.12
2022-08-05T15:40:41.631Z,35.91
2022-08-05T15:41:57.241Z,35.78
2022-08-05T15:44:28.137Z,35.74
2022-08-05T15:47:01.141Z,35.89
2022-08-05T15:49:42.198Z,35.88
2022-08-05T15:52:52.641Z,35.87
2022-08-05T15:55:16.244Z,35.93
2022-08-05T15:57:45.995Z,35.88
2022-08-05T16:00:32.491Z,35.74
2022-08-05T16:03:06.482Z,35.74
2022-08-05T16:05:34.880Z,35.63
2022-08-05T16:08:07.193Z,35.62
2022-08-05T16:10:36.363Z,35.59
2022-08-05T16:13:04.604Z,35.58
2022-08-05T16:15:34.697Z,35.47
2022-08-05T16:18:04.292Z,35.33
2022-08-05T16:20:37.348Z,35.19
2022-08-05T16:23:09.274Z,35.14
2022-08-05T16:25:41.425Z,35.11
2022-08-05T16:28:10.502Z,35.10
2022-08-05T16:30:39.108Z,35.14
2022-08-05T16:33:09.726Z,35.37
2022-08-05T16:35:42.429Z,35.40
2022-08-05T16:38:24.166Z,35.53
2022-08-05T16:41:00.116Z,35.44
2022-08-05T16:43:34.702Z,35.41
2022-08-05T16:46:12.628Z,35.40
2022-08-05T16:48:41.392Z,35.33
2022-08-05T16:51:11.165Z,35.33
2022-08-05T16:54:04.180Z,35.33
2022-08-05T16:56:31.063Z,35.33
2022-08-05T16:59:08.347Z,35.31
2022-08-05T17:01:52.877Z,35.12
2022-08-05T17:04:27.293Z,35.02
2022-08-05T17:07:03.117Z,34.98
2022-08-05T17:09:39.030Z,34.92
2022-08-05T17:12:22.614Z,34.87
2022-08-05T17:15:09.488Z,35.01
2022-08-05T17:17:44.394Z,34.95
2022-08-05T17:20:14.730Z,34.84
2022-08-05T17:22:43.449Z,34.79
2022-08-05T17:25:22.552Z,34.79
2022-08-05T17:28:01.820Z,34.71
2022-08-05T17:30:30.160Z,34.59
2022-08-05T17:33:01.512Z,34.53
2022-08-05T17:35:32.641Z,34.49
2022-08-05T17:38:18.281Z,34.48
2022-08-05T17:40:47.661Z,34.56
2022-08-05T17:43:17.924Z,34.69
2022-08-05T17:46:06.198Z,34.65
2022-08-05T17:48:38.503Z,34.53
2022-08-05T17:51:09.330Z,34.40
2022-08-05T17:53:37.754Z,34.18
2022-08-05T17:56:06.623Z,34.02
2022-08-05T17:58:37.715Z,33.87
2022-08-05T18:01:08.176Z,33.76
2022-08-05T18:03:58.348Z,33.64
2022-08-05T18:06:29.329Z,33.50
2022-08-05T18:08:59.467Z,33.38
2022-08-05T18:11:32.909Z,33.28
2022-08-05T18:14:03.485Z,33.18
2022-08-05T18:16:33.325Z,33.10
2022-08-05T18:19:02.397Z,33.02
2022-08-05T18:22:07.503Z,32.95
2022-08-05T18:24:19.048Z,32.91
2022-08-05T18:26:49.268Z,32.82
2022-08-05T18:29:17.569Z,32.77
2022-08-05T18:32:06.104Z,32.60
2022-08-05T18:34:41.046Z,32.51
2022-08-05T18:37:12.047Z,32.42
2022-08-05T18:40:34.275Z,32.32
2022-08-05T18:42:32.185Z,32.19
2022-08-05T18:45:00.392Z,32.09
2022-08-05T18:47:31.075Z,32.00
2022-08-05T18:50:21.125Z,31.89
2022-08-05T18:53:15.617Z,31.79
2022-08-05T18:55:52.101Z,31.71
2022-08-05T18:58:27.216Z,31.61
2022-08-05T19:00:57.843Z,31.55
2022-08-05T19:03:54.910Z,31.42
2022-08-05T19:06:20.114Z,31.28
2022-08-05T19:08:50.764Z,31.16
2022-08-05T19:11:21.924Z,31.09
2022-08-05T19:14:01.016Z,30.97
2022-08-05T19:16:46.895Z,30.86
2022-08-05T19:19:15.567Z,30.82
2022-08-05T19:21:51.562Z,30.72
2022-08-05T19:24:34.127Z,30.68
2022-08-05T19:27:04.416Z,30.59
2022-08-05T19:29:35.918Z,30.61
2022-08-05T19:32:08.611Z,30.62
2022-08-05T19:34:39.891Z,30.68
2022-08-05T19:37:10.048Z,30.85
2022-08-05T19:39:45.866Z,31.10
2022-08-05T19:42:35.029Z,31.22
2022-08-05T19:45:06.561Z,31.29
2022-08-05T19:47:40.284Z,31.39
2022-08-05T19:50:11.808Z,31.44
2022-08-05T19:52:40.805Z,31.44
2022-08-05T19:56:14.629Z,31.45
2022-08-05T19:58:14.193Z,31.37
2022-08-05T20:00:47.493Z,31.32
2022-08-05T20:03:16.004Z,31.25
2022-08-05T20:05:50.398Z,31.18
2022-08-05T20:08:24.281Z,31.13
2022-08-05T20:10:53.804Z,31.02
2022-08-05T20:13:29.862Z,30.94
2022-08-05T20:15:59.777Z,30.82
2022-08-05T20:18:33.120Z,30.81
2022-08-05T20:21:05.165Z,30.77
2022-08-05T20:23:51.029Z,30.80
2022-08-05T20:26:21.634Z,30.80
2022-08-05T20:28:55.793Z,30.80
2022-08-05T20:31:37.333Z,30.69
2022-08-05T20:34:14.871Z,30.54
2022-08-05T20:36:43.842Z,30.43
2022-08-05T20:39:16.389Z,30.30
2022-08-05T20:41:47.754Z,30.22
2022-08-05T20:44:30.129Z,30.16
2022-08-05T20:47:04.379Z,30.08
2022-08-05T20:49:39.743Z,30.00
2022-08-05T20:52:08.893Z,29.93
2022-08-05T20:54:59.805Z,29.91
2022-08-05T20:57:42.973Z,29.85
2022-08-05T21:00:41.139Z,29.77
2022-08-05T21:03:07.093Z,29.66
2022-08-05T21:05:54.034Z,29.64
2022-08-05T21:08:41.398Z,29.53
2022-08-05T21:11:12.408Z,29.40
2022-08-05T21:13:47.882Z,29.32
2022-08-05T21:16:29.325Z,29.26
2022-08-05T21:19:00.855Z,29.21
2022-08-05T21:21:38.970Z,29.18
2022-08-05T21:24:09.895Z,29.15
2022-08-05T21:26:41.404Z,29.09
2022-08-05T21:29:12.652Z,29.02
2022-08-05T21:31:45.030Z,28.91
2022-08-05T21:34:15.782Z,28.86
2022-08-05T21:36:46.632Z,28.81
2022-08-05T21:39:26.333Z,28.72
2022-08-05T21:42:02.028Z,28.63
2022-08-05T21:44:31.959Z,28.57
2022-08-05T21:47:00.620Z,28.49
2022-08-05T21:50:00.131Z,28.48
2022-08-05T21:52:27.775Z,28.47
2022-08-05T21:55:06.061Z,28.49
2022-08-05T21:57:36.254Z,28.48
2022-08-05T22:00:11.373Z,28.43
2022-08-05T22:02:43.527Z,28.42
2022-08-05T22:05:14.503Z,28.37
2022-08-05T22:07:59.427Z,28.32
2022-08-05T22:10:30.979Z,28.25
2022-08-05T22:13:21.975Z,28.18
2022-08-05T22:16:01.845Z,28.19
2022-08-05T22:18:35.977Z,28.14
2022-08-05T22:21:19.466Z,28.02
2022-08-05T22:24:08.967Z,27.99
2022-08-05T22:27:00.031Z,27.93
2022-08-05T22:29:30.807Z,27.91
2022-08-05T22:32:04.096Z,27.88
2022-08-05T22:34:33.607Z,27.81
2022-08-05T22:37:04.029Z,27.76
2022-08-05T22:39:34.528Z,27.68
2022-08-05T22:42:12.232Z,27.63
2022-08-05T22:44:53.618Z,27.57
2022-08-05T22:47:28.972Z,27.53
2022-08-05T22:50:19.552Z,27.46
2022-08-05T22:52:50.002Z,27.43
2022-08-05T22:55:21.502Z,27.37
2022-08-05T22:57:51.807Z,27.32
2022-08-05T23:00:22.993Z,27.27
2022-08-05T23:02:53.524Z,27.23
2022-08-05T23:05:22.913Z,27.21
2022-08-05T23:07:51.780Z,27.21
2022-08-05T23:10:23.923Z,27.19
2022-08-05T23:12:55.080Z,27.20
2022-08-05T23:15:27.159Z,27.21
2022-08-05T23:18:02.159Z,27.15
2022-08-05T23:20:33.474Z,27.12
2022-08-05T23:23:08.180Z,27.08
2022-08-05T23:25:53.630Z,27.04
2022-08-05T23:28:28.935Z,26.98
2022-08-05T23:31:16.386Z,26.92
2022-08-05T23:34:04.083Z,26.86
2022-08-05T23:36:38.533Z,26.85
2022-08-05T23:39:08.350Z,26.80
2022-08-05T23:41:37.344Z,26.76
2022-08-05T23:44:09.633Z,26.74
2022-08-05T23:46:39.379Z,26.65
2022-08-05T23:49:16.993Z,26.65
2022-08-05T23:52:09.355Z,26.56
2022-08-05T23:54:38.496Z,26.58
2022-08-05T23:57:07.407Z,26.62
